Flight Track Log - Related Links

Times and Time Zones

All times are in EDT time to prevent confusion due to time zone crossing. See the EJA372 flight status page for this flight to view local times or setup timezone preferences in your user account.

Time Position Orientation Groundspeed Altitude Reporting Facility
EDT Latitude Longitude Course Direction KTS MPH feet Rate Location/Type
Tue 04:35:52 PM 37.7333 -122.2667 180° South 201 231 1,800  Level Northern Cal TRACON
Tue 04:36:52 PM 37.7667 -122.3333 302° West 248 285 5,800 3,400 Climbing Northern Cal TRACON
Tue 04:37:52 PM 37.7667 -122.4167 270° West 285 328 8,600 2,600 Climbing Northern Cal TRACON
Tue 04:38:52 PM 37.7500 -122.5167 258° West 308 354 11,000 2,650 Climbing Northern Cal TRACON
Tue 04:39:52 PM 37.7167 -122.6167 247° West 353 406 13,900 2,715 Climbing Northern Cal TRACON
Tue 04:41:00 PM 37.2400 -121.8583 180° South  Level Estimated
Tue 04:41:09 PM 37.5839 -122.6108 178° South 372 428 17,200  Level Oakland Center
Tue 04:42:10 PM 37.4753 -122.6042 177° South 388 447 20,200 2,902 Climbing Oakland Center
Tue 04:43:11 PM 37.3647 -122.5967 177° South 397 457 23,100 2,341 Climbing Oakland Center
Tue 04:44:13 PM 37.2508 -122.5922 178° South 406 467 25,000 927 Climbing Oakland Center
Tue 04:45:14 PM 37.1264 -122.5797 175° South 438 504 25,000  Level Oakland Center
Tue 04:46:15 PM 37.0142 -122.5164 156° South 443 510 25,000  Level Oakland Center
Tue 04:47:17 PM 36.9203 -122.4222 141° Southeast 434 499 25,000  Level Oakland Center
Tue 04:48:18 PM 36.8283 -122.3294 141° Southeast 430 495 25,000  Level Oakland Center
Tue 04:49:19 PM 36.7197 -122.2208 141° Southeast 419 482 25,000  Level Oakland Center
Tue 04:50:21 PM 36.6303 -122.1286 140° Southeast 418 481 25,000  Level Oakland Center
Tue 04:51:22 PM 36.5353 -122.0342 141° Southeast 433 498 25,000  Level Oakland Center
Tue 04:52:23 PM 36.4389 -121.9375 141° Southeast 443 510 25,000  Level Oakland Center
Tue 04:53:25 PM 36.3428 -121.8406 141° Southeast 446 513 25,000  Level Oakland Center
Tue 04:54:26 PM 36.2481 -121.7469 141° Southeast 446 513 25,000  Level Oakland Center
Tue 04:55:27 PM 36.1533 -121.6525 141° Southeast 442 509 25,000  Level Oakland Center
Tue 04:56:29 PM 36.0378 -121.5408 142° Southeast 441 507 25,000  Level Oakland Center
Tue 04:57:30 PM 35.9431 -121.4478 141° Southeast 438 504 25,000  Level Oakland Center
Tue 04:58:32 PM 35.8486 -121.3553 142° Southeast 434 499 25,000  Level Oakland Center
Tue 04:59:33 PM 35.7536 -121.2622 142° Southeast 437 503 25,000  Level Oakland Center
Tue 05:00:35 PM 35.6572 -121.1692 142° Southeast 441 507 25,000  Level Oakland Center
Tue 05:01:36 PM 35.5650 -121.0789 141° Southeast 428 493 25,000  Level Oakland Center
Tue 05:02:49 PM 35.4517 -120.9706 142° Southeast 415 478 25,000 -134 Level Los Angeles Center
Tue 05:03:50 PM 35.3581 -120.8786 141° Southeast 429 494 24,700 -871 Descending Los Angeles Center
Tue 05:04:53 PM 35.2667 -120.7911 142° Southeast 418 481 23,200 -1,008 Descending Los Angeles Center
Tue 05:05:55 PM 35.1775 -120.7069 142° Southeast 407 468 22,600 -1,065 Descending Los Angeles Center
Tue 05:06:57 PM 35.0742 -120.6050 141° Southeast 399 459 21,000 -1,258 Descending Los Angeles Center
Tue 05:07:59 PM 34.9908 -120.5269 142° Southeast 380 437 20,000 -1,597 Descending Los Angeles Center
Tue 05:09:01 PM 34.9125 -120.4514 142° Southeast 362 417 17,700 -2,468 Descending Los Angeles Center
Tue 05:10:03 PM 34.8367 -120.3792 142° Southeast 346 398 14,900 -2,821 Descending Los Angeles Center
Tue 05:10:58 PM 34.7619 -120.3097 143° Southeast 343 395 12,200 -2,613 Descending Los Angeles Center
Tue 05:11:05 PM 34.7617 -120.3075 99° East 342 394 12,200 -2,108 Level Los Angeles Center
Tue 05:11:35 PM 34.7131 -120.2628 143° Southeast 357 411 10,900 -2,226 Descending Los Angeles Center
Tue 05:12:07 PM 34.6842 -120.2339 141° Southeast 350 403 9,900 -1,869 Descending Los Angeles Center
Tue 05:12:36 PM 34.6425 -120.1964 143° Southeast 299 344 9,000 -857 Descending Los Angeles Center
Tue 05:13:10 PM 34.6208 -120.1739 139° Southeast 293 337 9,000  Level Los Angeles Center
Tue 05:13:37 PM 34.5800 -120.1381 144° Southeast 292 336 9,000  Level Los Angeles Center
Tue 05:14:12 PM 34.5533 -120.1106 140° Southeast 297 342 9,000 -327 Level Los Angeles Center
Tue 05:14:32 PM 34.5175 -120.0797 145° Southeast 297 342 8,700 -1,452 Descending Los Angeles Center
Tue 05:15:14 PM 34.4750 -120.0378 141° Southeast 291 335 7,500 -1,970 Descending Los Angeles Center
Tue 05:15:39 PM 34.4547 -120.0192 143° Southeast 278 320 6,500 -3,000 Descending Los Angeles Center
Tue 05:16:16 PM 34.4208 -119.9808 137° Southeast 263 303 4,400 -3,700 Descending Los Angeles Center
Tue 05:16:39 PM 34.4136 -119.9517 107° East 241 277 2,800 -2,903 Descending Los Angeles Center
Tue 05:17:18 PM 34.4228 -119.9119 74° East 234 269 1,400 -1,964 Descending Los Angeles Center
Tue 05:17:34 PM 34.4256 -119.8981 76° East 181 208 1,000 -1,500 Descending Los Angeles Center
Tue 05:19:00 PM 34.4262 -119.8415 90° East  Level Estimated
Tue 05:26:00 PM 34.4262 -119.8415 90° East  Level Estimated

Login

Don't have an account? Register now (free) for customized features, flight alerts, and more!